TimeMDT,TemperatureF,Dew PointF,Humidity,Sea Level PressureIn,VisibilityMPH,Wind Direction,Wind SpeedMPH,Gust SpeedMPH,PrecipitationIn,Events,Conditions,WindDirDegrees,DateUTC
12:51 AM,50.0,33.1,52,30.03,-9999.0,SE,3.5,-,N/A,,Unknown,140,2013-07-19 06:51:00
1:51 AM,46.9,33.1,59,30.03,-9999.0,Calm,Calm,-,N/A,,Unknown,0,2013-07-19 07:51:00
2:51 AM,44.1,33.1,65,30.05,-9999.0,Calm,Calm,-,N/A,,Unknown,0,2013-07-19 08:51:00
3:51 AM,39.9,32.0,73,30.06,-9999.0,Calm,Calm,-,N/A,,Unknown,0,2013-07-19 09:51:00
4:51 AM,37.9,30.9,76,30.06,-9999.0,Calm,Calm,-,N/A,,Unknown,0,2013-07-19 10:51:00
5:51 AM,37.0,30.9,79,30.09,-9999.0,Calm,Calm,-,N/A,,Unknown,0,2013-07-19 11:51:00
6:51 AM,36.0,30.9,82,30.10,-9999.0,SSE,3.5,-,N/A,,Unknown,150,2013-07-19 12:51:00
7:51 AM,45.0,35.1,68,30.08,-9999.0,Calm,Calm,-,N/A,,Unknown,0,2013-07-19 13:51:00
8:51 AM,54.0,36.0,51,30.06,-9999.0,Calm,Calm,-,N/A,,Unknown,0,2013-07-19 14:51:00
9:51 AM,60.1,36.0,41,30.06,-9999.0,NNW,3.5,-,N/A,,Unknown,340,2013-07-19 15:51:00
10:51 AM,69.1,37.9,32,30.04,-9999.0,Calm,Calm,-,N/A,,Unknown,0,2013-07-19 16:51:00
11:51 AM,79.0,36.0,21,30.00,-9999.0,North,4.6,-,N/A,,Unknown,10,2013-07-19 17:51:00
12:51 PM,82.9,27.0,13,29.96,-9999.0,NNE,8.1,-,N/A,,Unknown,30,2013-07-19 18:51:00
1:51 PM,84.9,28.0,13,29.95,-9999.0,Variable,3.5,-,N/A,,Unknown,0,2013-07-19 19:51:00
2:51 PM,84.9,24.1,11,29.94,-9999.0,WNW,9.2,17.3,N/A,,Unknown,300,2013-07-19 20:51:00
3:51 PM,84.9,25.0,11,29.94,-9999.0,Calm,Calm,-,N/A,,Unknown,0,2013-07-19 21:51:00
4:51 PM,84.9,26.1,12,29.94,-9999.0,NW,6.9,16.1,N/A,,Unknown,310,2013-07-19 22:51:00
5:51 PM,86.0,28.0,12,29.92,-9999.0,Variable,3.5,-,N/A,,Unknown,0,2013-07-19 23:51:00
6:51 PM,81.0,25.0,13,29.94,-9999.0,NW,5.8,-,N/A,,Unknown,310,2013-07-20 00:51:00
7:51 PM,78.1,28.0,16,29.91,-9999.0,West,3.5,-,N/A,,Unknown,260,2013-07-20 01:51:00
8:51 PM,71.1,33.1,25,29.91,-9999.0,Calm,Calm,-,N/A,,Unknown,0,2013-07-20 02:51:00
9:51 PM,61.0,28.0,29,29.94,-9999.0,Calm,Calm,-,N/A,,Unknown,0,2013-07-20 03:51:00
10:51 PM,55.9,27.0,33,29.94,-9999.0,Calm,Calm,-,N/A,,Unknown,0,2013-07-20 04:51:00
11:51 PM,52.0,27.0,38,29.92,-9999.0,SSE,4.6,-,N/A,,Unknown,160,2013-07-20 05:51:00